GMFSF EGMT-EGTD
Flight info
| Callsign | GMFSF |
|---|---|
| Flight time | 0h 11m |
| Altitude | 6000 |
| Route | EDMT DCT EDTD |
| Aircraft | SF50/L-SR/S |
Departure
| Time | 2026-04-28 15:10 |
|---|---|
| Airport | Thurrock Airfield (EGMT) |
Arrival
| Time | 2026-04-28 15:22 |
|---|---|
| Airport | Dunsfold Aerodrome (EGTD) |
| Time | Latitude | Longitude | Altitude | Speed | Heading |
|---|---|---|---|---|---|
| 2026-04-28 15:04 | 51.53608 | 0.36375 | 25 ft | 0 kts | 75° |
| 2026-04-28 15:06 | 51.53608 | 0.36376 | 25 ft | 2 kts | 75° |
| 2026-04-28 15:06 | 51.53648 | 0.36419 | 26 ft | 5 kts | 70° |
| 2026-04-28 15:06 | 51.53672 | 0.36510 | 23 ft | 15 kts | 66° |
| 2026-04-28 15:06 | 51.53698 | 0.36619 | 24 ft | 2 kts | 66° |
| 2026-04-28 15:07 | 51.53708 | 0.36660 | 26 ft | 8 kts | 67° |
| 2026-04-28 15:07 | 51.53717 | 0.36687 | 28 ft | 0 kts | 28° |
| 2026-04-28 15:08 | 51.53748 | 0.36780 | 27 ft | 26 kts | 65° |
| 2026-04-28 15:08 | 51.53806 | 0.37054 | 29 ft | 12 kts | 74° |
| 2026-04-28 15:08 | 51.53813 | 0.37148 | 30 ft | 4 kts | 194° |
| 2026-04-28 15:08 | 51.53809 | 0.37139 | 30 ft | 0 kts | 249° |
| 2026-04-28 15:10 | 51.53719 | 0.36671 | 27 ft | 84 kts | 252° |
| 2026-04-28 15:10 | 51.53500 | 0.35462 | 388 ft | 134 kts | 251° |
| 2026-04-28 15:10 | 51.53013 | 0.33977 | 1160 ft | 160 kts | 240° |
| 2026-04-28 15:11 | 51.52336 | 0.32424 | 2127 ft | 174 kts | 236° |
| 2026-04-28 15:11 | 51.51461 | 0.31174 | 3048 ft | 167 kts | 210° |
| 2026-04-28 15:11 | 51.50549 | 0.30075 | 3981 ft | 162 kts | 230° |
| 2026-04-28 15:11 | 51.49908 | 0.28637 | 4861 ft | 159 kts | 239° |
| 2026-04-28 15:12 | 51.49278 | 0.27205 | 5659 ft | 157 kts | 235° |
| 2026-04-28 15:12 | 51.48551 | 0.25709 | 6007 ft | 187 kts | 234° |
| 2026-04-28 15:12 | 51.47718 | 0.23924 | 6016 ft | 213 kts | 236° |
| 2026-04-28 15:12 | 51.46786 | 0.21859 | 6011 ft | 242 kts | 236° |
| 2026-04-28 15:13 | 51.45747 | 0.19577 | 6007 ft | 264 kts | 235° |
| 2026-04-28 15:13 | 51.44629 | 0.17167 | 5998 ft | 274 kts | 234° |
| 2026-04-28 15:13 | 51.43482 | 0.14707 | 6000 ft | 276 kts | 234° |
| 2026-04-28 15:13 | 51.42340 | 0.12230 | 5997 ft | 277 kts | 236° |
| 2026-04-28 15:14 | 51.41190 | 0.09731 | 6009 ft | 278 kts | 234° |
| 2026-04-28 15:14 | 51.40033 | 0.07269 | 6011 ft | 278 kts | 235° |
| 2026-04-28 15:14 | 51.38898 | 0.04757 | 5994 ft | 278 kts | 235° |
| 2026-04-28 15:14 | 51.37746 | 0.02271 | 6014 ft | 276 kts | 235° |
| 2026-04-28 15:15 | 51.36600 | -0.00197 | 5997 ft | 276 kts | 233° |
| 2026-04-28 15:15 | 51.35418 | -0.02627 | 6001 ft | 277 kts | 233° |
| 2026-04-28 15:15 | 51.34283 | -0.05116 | 5993 ft | 277 kts | 236° |
| 2026-04-28 15:15 | 51.33138 | -0.07616 | 6004 ft | 278 kts | 235° |
| 2026-04-28 15:16 | 51.31978 | -0.10088 | 5998 ft | 278 kts | 235° |
| 2026-04-28 15:16 | 51.30813 | -0.12560 | 5987 ft | 279 kts | 234° |
| 2026-04-28 15:16 | 51.29643 | -0.15030 | 6006 ft | 278 kts | 235° |
| 2026-04-28 15:16 | 51.28507 | -0.17474 | 5999 ft | 277 kts | 233° |
| 2026-04-28 15:17 | 51.27327 | -0.19957 | 6012 ft | 277 kts | 235° |
| 2026-04-28 15:17 | 51.26209 | -0.22430 | 5997 ft | 277 kts | 235° |
| 2026-04-28 15:17 | 51.25049 | -0.24889 | 5999 ft | 277 kts | 233° |
| 2026-04-28 15:17 | 51.23838 | -0.27308 | 6009 ft | 279 kts | 232° |
| 2026-04-28 15:18 | 51.22562 | -0.29642 | 6004 ft | 279 kts | 229° |
| 2026-04-28 15:18 | 51.21252 | -0.31926 | 6001 ft | 279 kts | 229° |
| 2026-04-28 15:18 | 51.19965 | -0.34165 | 5691 ft | 257 kts | 229° |
| 2026-04-28 15:18 | 51.18785 | -0.36215 | 4286 ft | 247 kts | 229° |
| 2026-04-28 15:19 | 51.17647 | -0.38212 | 2905 ft | 240 kts | 229° |
| 2026-04-28 15:19 | 51.16539 | -0.40134 | 2031 ft | 223 kts | 230° |
| 2026-04-28 15:19 | 51.15599 | -0.41791 | 1971 ft | 180 kts | 228° |
| 2026-04-28 15:19 | 51.14836 | -0.43173 | 1864 ft | 155 kts | 233° |
| 2026-04-28 15:20 | 51.14184 | -0.44498 | 1590 ft | 152 kts | 237° |
| 2026-04-28 15:20 | 51.13690 | -0.45911 | 1440 ft | 142 kts | 250° |
| 2026-04-28 15:20 | 51.13374 | -0.47272 | 1196 ft | 126 kts | 255° |
| 2026-04-28 15:20 | 51.13080 | -0.48550 | 986 ft | 118 kts | 254° |
| 2026-04-28 15:21 | 51.12793 | -0.49747 | 766 ft | 112 kts | 248° |
| 2026-04-28 15:21 | 51.12459 | -0.50843 | 531 ft | 104 kts | 244° |
| 2026-04-28 15:21 | 51.12202 | -0.51839 | 302 ft | 91 kts | 249° |
| 2026-04-28 15:21 | 51.11969 | -0.52680 | 168 ft | 72 kts | 251° |
| 2026-04-28 15:22 | 51.11890 | -0.52998 | 168 ft | 2 kts | 178° |
| 2026-04-28 15:22 | 51.11919 | -0.52889 | 168 ft | 21 kts | 59° |
| 2026-04-28 15:22 | 51.12006 | -0.52597 | 166 ft | 35 kts | 64° |
| 2026-04-28 15:22 | 51.12058 | -0.52472 | 165 ft | 5 kts | 339° |
| 2026-04-28 15:23 | 51.12063 | -0.52475 | 165 ft | 2 kts | 327° |
| 2026-04-28 15:23 | 51.12058 | -0.52609 | 166 ft | 17 kts | 244° |
| 2026-04-28 15:23 | 51.12018 | -0.52715 | 167 ft | 6 kts | 192° |
| 2026-04-28 15:23 | 51.12012 | -0.52715 | 168 ft | 0 kts | 170° |
| 2026-04-28 15:24 | 51.12009 | -0.52714 | 168 ft | 0 kts | 360° |